Terminal Aerodrome Forecast
Issued by NWS Portland, OR

Home | Current Version | Previous Version | Text Only | Print | Product List | Glossary On
Versions: 1 2 3 4 5 6 7 8 9 10 11 12 13 14 15 16 17 18 19 20 21 22 23 24 25 26 27 28 29 30 31 32 33 34 35 36 37 38
516
FTUS46 KPQR 101140
TAFEUG
TAF
KEUG 101140Z 1012/1112 VRB04KT P6SM FEW002 BKN250
     FM101600 17007KT P6SM SCT050 OVC100
     FM110200 VRB03KT P6SM BKN050 OVC100=

USA.gov is the U.S. government's official web portal to all federal, state and local government web resources and services.